Time;durP1;ratioP1;P1;durP2;ratioP2;P2;SDS_P1;SDS_P2;PMS_P1;PMS_P2;Temp;Humidity;BMP_temperature;BMP_pressure;BME280_temperature;BME280_humidity;BME280_pressure;Samples;Min_cycle;Max_cycle;Signal;HPM_P1;HPM_P2
2022/06/16 00:05:34;;;;;;;24.23;23.07;;;;;;;17.70;100.00;101918.09;2009598;71;31379;-69
2022/06/16 00:11:19;;;;;;;23.43;22.23;;;;;;;17.54;100.00;101923.07;2002787;71;31471;-69
2022/06/16 00:17:06;;;;;;;24.27;23.07;;;;;;;17.49;100.00;101920.94;2013532;71;30840;-70
2022/06/16 00:23:10;;;;;;;37.00;34.93;;;;;;;17.02;100.00;101929.80;2000945;71;30816;-69
2022/06/16 00:28:55;;;;;;;41.40;38.80;;;;;;;16.81;100.00;101932.02;2000336;71;30884;-69
2022/06/16 00:34:40;;;;;;;43.83;41.33;;;;;;;16.83;100.00;101936.78;1998607;71;32857;-69
2022/06/16 00:40:25;;;;;;;40.73;38.37;;;;;;;16.96;100.00;101942.22;1997002;71;30851;-69
2022/06/16 00:46:20;;;;;;;41.70;39.10;;;;;;;16.94;100.00;101937.49;1997145;71;30843;-69
2022/06/16 00:52:09;;;;;;;48.63;45.57;;;;;;;16.96;100.00;101937.17;1997167;71;31391;-69
2022/06/16 00:57:57;;;;;;;51.70;48.70;;;;;;;16.94;100.00;101945.91;2009581;71;30895;-69
2022/06/16 01:09:46;;;;;;;49.53;46.73;;;;;;;16.63;100.00;101947.44;2011644;71;33036;-69
2022/06/16 01:15:45;;;;;;;48.93;46.03;;;;;;;16.85;100.00;101957.54;2014775;71;32931;-69
2022/06/16 01:21:42;;;;;;;42.97;40.47;;;;;;;17.10;100.00;101954.95;2011104;71;32915;-71
2022/06/16 01:28:19;;;;;;;35.27;33.07;;;;;;;16.94;100.00;101955.73;2009708;71;31375;-69
2022/06/16 01:34:11;;;;;;;36.80;34.60;;;;;;;16.81;100.00;101965.70;2015094;71;33326;-69
2022/06/16 01:36:45;;;;;;;36.23;34.13;;;;;;;16.67;100.00;101981.61;1976199;72;24633;-69
2022/06/16 01:42:36;;;;;;;34.33;32.40;;;;;;;16.66;100.00;101980.49;2009598;71;30865;-70
2022/06/16 01:48:26;;;;;;;35.63;33.53;;;;;;;16.61;100.00;102000.19;2000213;71;32821;-69
2022/06/16 01:54:15;;;;;;;41.03;38.73;;;;;;;16.24;100.00;102003.64;2015117;71;30933;-69
2022/06/16 02:00:06;;;;;;;42.23;39.83;;;;;;;16.09;100.00;102006.00;2018490;71;32934;-69
2022/06/16 02:05:55;;;;;;;49.30;46.53;;;;;;;15.85;100.00;102022.76;2004087;71;32835;-69
2022/06/16 02:11:44;;;;;;;51.63;48.63;;;;;;;15.27;100.00;102036.28;2011927;71;33430;-70
2022/06/16 02:17:32;;;;;;;52.00;49.07;;;;;;;15.76;100.00;102027.87;2016702;70;33318;-69
2022/06/16 02:23:17;;;;;;;51.53;48.50;;;;;;;15.41;100.00;102029.74;1995400;71;33275;-69
2022/06/16 02:29:05;;;;;;;52.83;49.77;;;;;;;15.31;100.00;102037.37;2007653;71;33430;-69
2022/06/16 02:35:00;;;;;;;54.83;51.63;;;;;;;15.18;100.00;102047.24;2002681;71;32874;-69
2022/06/16 02:37:46;;;;;;;57.10;53.80;;;;;;;15.22;100.00;102055.90;1978826;72;26408;-71
2022/06/16 02:43:59;;;;;;;53.47;50.37;;;;;;;15.11;100.00;102052.29;2005764;71;32833;-69
2022/06/16 02:46:57;;;;;;;51.93;48.83;;;;;;;15.02;100.00;102056.25;1979547;72;26289;-70
2022/06/16 02:49:33;;;;;;;51.60;48.50;;;;;;;15.10;100.00;102052.59;1983710;72;26279;-70
2022/06/16 02:52:18;;;;;;;50.63;47.63;;;;;;;15.14;100.00;102055.09;1982797;72;26388;-70
2022/06/16 02:54:53;;;;;;;50.67;47.57;;;;;;;15.06;100.00;102059.89;1966937;72;26306;-70
2022/06/16 03:00:42;;;;;;;55.67;52.40;;;;;;;15.29;100.00;102061.45;2009521;71;33388;-69
2022/06/16 03:06:34;;;;;;;54.20;51.00;;;;;;;14.77;100.00;102084.30;2006218;71;33277;-69
2022/06/16 03:12:19;;;;;;;55.93;52.63;;;;;;;14.49;100.00;102083.53;1995451;71;32866;-69
2022/06/16 03:18:03;;;;;;;58.50;54.90;;;;;;;14.42;100.00;102086.59;1997036;71;32849;-69
2022/06/16 03:23:48;;;;;;;55.87;52.50;;;;;;;14.32;100.00;102089.94;2014920;71;33329;-69
2022/06/16 03:29:33;;;;;;;56.53;53.13;;;;;;;14.46;100.00;102078.51;2018533;71;33303;-70
2022/06/16 03:35:18;;;;;;;52.90;49.63;;;;;;;14.46;100.00;102075.71;2013096;71;32816;-69
2022/06/16 03:41:02;;;;;;;56.37;52.30;;;;;;;14.50;100.00;102086.61;2005679;71;32958;-70
2022/06/16 03:46:47;;;;;;;57.20;53.50;;;;;;;14.61;100.00;102081.27;2013314;71;33430;-69
2022/06/16 03:52:31;;;;;;;56.07;52.47;;;;;;;14.49;100.00;102079.34;1991705;71;32757;-69
2022/06/16 03:58:16;;;;;;;55.07;51.50;;;;;;;14.58;100.00;102086.03;2016676;71;32881;-70
2022/06/16 04:04:03;;;;;;;55.30;51.70;;;;;;;14.56;100.00;102087.70;2005733;71;32930;-74
2022/06/16 04:09:48;;;;;;;56.37;52.87;;;;;;;14.60;100.00;102093.56;1991666;71;32821;-76
2022/06/16 04:15:33;;;;;;;56.87;53.17;;;;;;;14.51;100.00;102097.49;1999225;71;33282;-75
2022/06/16 04:21:18;;;;;;;56.27;52.77;;;;;;;14.46;100.00;102103.67;2017024;71;32867;-74
2022/06/16 04:27:02;;;;;;;56.40;52.70;;;;;;;14.57;100.00;102104.77;2014948;71;33300;-74
2022/06/16 04:32:46;;;;;;;55.47;52.00;;;;;;;14.54;100.00;102096.95;2016962;71;32818;-74
2022/06/16 04:38:30;;;;;;;58.43;54.73;;;;;;;14.53;100.00;102100.02;2010133;71;32757;-74
2022/06/16 04:44:14;;;;;;;61.20;56.90;;;;;;;14.36;100.00;102114.84;2013792;71;32795;-74
2022/06/16 04:49:59;;;;;;;61.43;57.33;;;;;;;14.43;100.00;102115.39;1997231;71;32959;-75
2022/06/16 04:55:43;;;;;;;59.90;56.00;;;;;;;14.67;100.00;102117.06;2013543;71;33463;-74
2022/06/16 05:01:28;;;;;;;59.00;55.10;;;;;;;15.04;100.00;102121.73;2016904;71;33394;-74
2022/06/16 05:07:14;;;;;;;57.30;53.60;;;;;;;15.23;100.00;102118.58;2002204;71;33284;-76
2022/06/16 05:12:59;;;;;;;54.10;50.70;;;;;;;15.55;100.00;102118.20;2014979;71;32906;-76
2022/06/16 05:18:44;;;;;;;51.73;48.57;;;;;;;15.98;100.00;102133.92;2002890;71;33379;-74
2022/06/16 05:24:34;;;;;;;60.37;56.77;;;;;;;15.89;100.00;102146.30;2015296;71;32921;-76
2022/06/16 05:30:22;;;;;;;54.47;50.97;;;;;;;15.85;100.00;102152.22;2018799;71;33467;-74
2022/06/16 05:36:10;;;;;;;55.97;52.27;;;;;;;15.96;100.00;102153.00;2005689;71;32933;-74
2022/06/16 05:42:00;;;;;;;56.53;52.63;;;;;;;15.75;100.00;102163.47;1998594;71;32928;-75
2022/06/16 05:47:47;;;;;;;55.10;51.73;;;;;;;15.80;100.00;102167.09;2009680;71;32851;-75
2022/06/16 05:53:34;;;;;;;57.57;53.57;;;;;;;16.11;100.00;102162.70;2006356;71;32823;-76
2022/06/16 05:59:18;;;;;;;59.03;55.23;;;;;;;15.99;100.00;102156.63;1997117;71;32805;-74
2022/06/16 06:05:03;;;;;;;61.30;57.37;;;;;;;16.17;100.00;102165.77;2007214;70;32923;-74
2022/06/16 06:16:54;;;;;;;58.33;54.87;;;;;;;16.46;100.00;102177.03;2014851;71;32870;-75
2022/06/16 06:22:39;;;;;;;58.63;55.23;;;;;;;16.70;100.00;102177.98;2002279;71;33026;-76
2022/06/16 06:28:25;;;;;;;54.70;51.70;;;;;;;16.72;100.00;102168.16;2009881;71;33023;-74
2022/06/16 06:34:14;;;;;;;61.37;57.43;;;;;;;16.89;100.00;102175.28;1997109;70;32806;-74
2022/06/16 06:39:59;;;;;;;60.03;56.33;;;;;;;16.98;100.00;102178.56;2005814;71;33129;-76
2022/06/16 06:45:46;;;;;;;57.23;53.77;;;;;;;17.05;100.00;102198.70;2000830;71;30809;-76
2022/06/16 06:51:33;;;;;;;56.77;52.97;;;;;;;17.18;100.00;102196.60;2000868;71;32798;-76
2022/06/16 06:57:20;;;;;;;56.27;52.70;;;;;;;17.42;100.00;102177.50;2002762;71;32911;-74
2022/06/16 07:03:05;;;;;;;59.80;56.10;;;;;;;17.65;100.00;102183.72;2011535;71;32957;-74
2022/06/16 07:08:57;;;;;;;55.13;51.70;;;;;;;17.74;100.00;102161.68;2055281;69;32811;-76
2022/06/16 07:14:42;;;;;;;61.20;57.03;;;;;;;17.77;100.00;102148.98;2017027;71;32856;-78
2022/06/16 07:20:26;;;;;;;64.93;60.73;;;;;;;18.02;100.00;102153.41;2004035;71;32960;-79
2022/06/16 07:26:11;;;;;;;56.60;53.03;;;;;;;18.32;100.00;102141.68;1998882;71;31450;-72
2022/06/16 07:31:55;;;;;;;49.77;46.63;;;;;;;18.59;100.00;102139.02;2016871;71;33347;-72
2022/06/16 07:37:42;;;;;;;48.80;45.67;;;;;;;18.88;100.00;102089.49;1933562;70;31088;-77
2022/06/16 07:43:30;;;;;;;44.23;41.03;;;;;;;19.53;100.00;102143.70;1997352;71;30892;-75
2022/06/16 07:49:17;;;;;;;45.73;43.00;;;;;;;20.04;100.00;102148.77;2018693;71;31006;-74
2022/06/16 07:55:02;;;;;;;40.03;37.23;;;;;;;20.48;100.00;102159.31;2004461;71;30918;-75
2022/06/16 08:00:46;;;;;;;33.70;31.37;;;;;;;20.86;100.00;102152.94;2000467;71;30880;-76
2022/06/16 08:06:26;;;;;;;33.90;31.70;;;;;;;21.18;100.00;102142.51;2003716;71;30628;-74
2022/06/16 08:12:11;;;;;;;29.93;28.13;;;;;;;21.57;100.00;102142.47;2002756;71;30816;-75
2022/06/16 08:17:58;;;;;;;26.00;24.30;;;;;;;21.70;100.00;102143.49;2013629;71;33251;-76
2022/06/16 08:23:42;;;;;;;24.00;22.33;;;;;;;22.11;100.00;102141.69;1999032;71;30981;-75
2022/06/16 08:29:27;;;;;;;23.27;21.47;;;;;;;22.23;100.00;102137.61;2009396;71;30987;-76
2022/06/16 08:35:13;;;;;;;17.40;16.20;;;;;;;22.75;100.00;102136.17;2013461;71;31405;-75
2022/06/16 08:41:12;;;;;;;16.50;15.30;;;;;;;23.14;100.00;102136.73;2011573;71;31475;-75
2022/06/16 08:43:47;;;;;;;15.40;14.43;;;;;;;23.14;100.00;102136.73;1969014;72;24536;-75
2022/06/16 08:49:39;;;;;;;14.77;13.63;;;;;;;23.00;100.00;102131.02;2011641;71;31477;-76
2022/06/16 08:52:21;;;;;;;13.20;12.50;;;;;;;22.97;100.00;102131.12;1972695;72;24225;-76
2022/06/16 08:54:59;;;;;;;13.73;12.83;;;;;;;22.82;100.00;102134.48;1967717;72;24159;-76
2022/06/16 08:57:36;;;;;;;13.23;12.30;;;;;;;22.51;100.00;102133.25;1985156;72;24161;-75
2022/06/16 09:03:28;;;;;;;13.70;12.80;;;;;;;23.50;100.00;102110.72;2010247;70;30821;-75
2022/06/16 09:10:14;;;;;;;12.83;12.03;;;;;;;23.57;100.00;102118.12;1903497;75;31647;-75
2022/06/16 09:15:12;;;;;;;13.87;13.17;;;;;;;23.35;100.00;102117.53;2000707;71;31353;-75
2022/06/16 09:21:07;;;;;;;13.62;12.82;;;;;;;23.05;100.00;102125.17;2006424;71;30829;-76
2022/06/16 09:27:02;;;;;;;14.28;13.45;;;;;;;22.73;100.00;102126.58;2018719;71;30902;-75
2022/06/16 09:32:54;;;;;;;12.07;11.28;;;;;;;22.76;100.00;102128.77;2008401;71;31424;-75
2022/06/16 09:35:27;;;;;;;11.73;11.12;;;;;;;23.13;100.00;102129.97;1967927;72;24169;-76
2022/06/16 09:38:02;;;;;;;12.40;11.60;;;;;;;23.11;100.00;102136.55;1973091;72;24163;-76
2022/06/16 09:43:51;;;;;;;12.15;11.45;;;;;;;23.43;100.00;102128.87;2006406;71;30829;-75
2022/06/16 09:49:40;;;;;;;12.10;11.40;;;;;;;23.75;100.00;102130.75;1997289;71;31377;-76
2022/06/16 09:55:30;;;;;;;11.48;10.88;;;;;;;23.75;100.00;102132.17;2016796;71;30940;-75
2022/06/16 09:58:04;;;;;;;12.07;11.38;;;;;;;23.61;100.00;102136.70;1980861;72;24155;-75
2022/06/16 10:03:54;;;;;;;11.85;11.25;;;;;;;23.08;100.00;102141.48;2004547;71;31432;-76
2022/06/16 10:09:47;;;;;;;11.78;11.08;;;;;;;24.01;100.00;102147.85;2013310;71;31462;-75
2022/06/16 10:15:38;;;;;;;11.78;11.08;;;;;;;23.43;100.00;102152.97;1991693;71;27924;-77
2022/06/16 10:21:22;;;;;;;11.60;10.88;;;;;;;23.50;100.00;102144.75;1995538;71;31442;-76
2022/06/16 10:27:12;;;;;;;11.57;11.08;;;;;;;23.40;100.00;102145.70;1911238;73;31536;-75
2022/06/16 10:33:14;;;;;;;11.50;10.90;;;;;;;23.84;100.00;102144.30;2018674;71;31356;-75
2022/06/16 10:39:11;;;;;;;11.48;10.82;;;;;;;23.51;100.00;102167.70;2013450;71;31010;-77
2022/06/16 10:41:46;;;;;;;11.25;10.68;;;;;;;23.55;100.00;102174.94;1986351;72;24680;-75
2022/06/16 10:47:35;;;;;;;12.43;11.55;;;;;;;23.43;100.00;102164.88;2012104;71;30863;-75
2022/06/16 10:53:25;;;;;;;11.60;11.00;;;;;;;23.95;100.00;102173.38;2000825;71;31316;-75
2022/06/16 10:55:58;;;;;;;11.50;10.90;;;;;;;24.16;100.00;102169.75;1971834;72;24248;-75
2022/06/16 10:58:34;;;;;;;11.78;11.08;;;;;;;24.00;100.00;102169.51;1982872;72;24199;-75
2022/06/16 11:01:08;;;;;;;11.30;10.80;;;;;;;24.67;100.00;102164.20;1971292;72;24236;-75
2022/06/16 11:03:43;;;;;;;11.48;10.98;;;;;;;24.12;100.00;102168.16;1971877;72;24661;-75
2022/06/16 11:09:32;;;;;;;11.22;10.72;;;;;;;23.74;100.00;102156.06;2018513;71;31055;-75
2022/06/16 11:15:24;;;;;;;11.65;11.00;;;;;;;23.92;100.00;102162.69;2001047;71;30976;-76
2022/06/16 11:21:18;;;;;;;12.53;11.73;;;;;;;23.82;100.00;102163.69;2011236;71;31198;-75
2022/06/16 11:27:10;;;;;;;13.62;13.00;;;;;;;23.64;100.00;102155.86;2018710;71;31427;-75
2022/06/16 11:32:55;;;;;;;11.97;11.38;;;;;;;24.34;100.00;102157.08;2016696;71;30888;-76
2022/06/16 11:38:45;;;;;;;11.95;11.45;;;;;;;24.35;100.00;102151.03;2002284;71;30984;-76
2022/06/16 11:44:40;;;;;;;11.22;10.72;;;;;;;23.82;100.00;102169.37;2011388;71;30818;-75
2022/06/16 11:50:31;;;;;;;12.25;11.60;;;;;;;23.80;100.00;102159.77;2017066;71;30894;-75
2022/06/16 11:53:07;;;;;;;11.93;11.22;;;;;;;23.90;100.00;102168.48;1980236;72;24135;-75
2022/06/16 11:55:41;;;;;;;11.53;10.95;;;;;;;23.70;100.00;102170.11;1961823;72;24225;-75
2022/06/16 11:58:24;;;;;;;12.20;11.60;;;;;;;23.56;100.00;102168.09;1985861;72;24609;-75
2022/06/16 12:00:58;;;;;;;12.05;11.35;;;;;;;24.25;100.00;102167.09;1968139;72;24205;-76
2022/06/16 12:10:59;;;;;;;11.50;11.00;;;;;;;23.93;100.00;102167.20;2008412;71;31329;-76
2022/06/16 12:16:52;;;;;;;11.57;10.90;;;;;;;23.97;100.00;102171.01;2006345;71;30951;-77
2022/06/16 12:22:43;;;;;;;11.22;10.63;;;;;;;23.88;100.00;102168.81;2014898;71;30960;-76
2022/06/16 12:25:17;;;;;;;11.75;11.15;;;;;;;23.72;100.00;102179.68;1982312;72;24192;-76
2022/06/16 12:27:50;;;;;;;11.30;10.80;;;;;;;23.98;100.00;102180.36;1969154;72;24673;-76
2022/06/16 12:33:39;;;;;;;11.25;10.65;;;;;;;23.96;100.00;102178.47;2011318;71;30889;-75
2022/06/16 12:39:29;;;;;;;11.43;10.78;;;;;;;24.07;100.00;102177.47;2006406;71;31367;-76
2022/06/16 12:45:18;;;;;;;11.50;10.98;;;;;;;24.10;100.00;102181.02;2000306;71;30892;-76
2022/06/16 12:51:08;;;;;;;10.80;10.28;;;;;;;23.81;100.00;102159.19;2008070;71;30817;-75
2022/06/16 12:57:03;;;;;;;10.90;10.40;;;;;;;23.87;100.00;102153.56;2002641;71;30926;-75
2022/06/16 13:02:55;;;;;;;12.10;11.30;;;;;;;23.84;100.00;102157.07;1995081;71;30962;-76
2022/06/16 13:08:44;;;;;;;11.22;10.72;;;;;;;23.86;100.00;102129.19;1974452;71;31457;-74
2022/06/16 13:14:35;;;;;;;11.63;10.98;;;;;;;23.81;100.00;102124.55;2011541;70;30997;-75
2022/06/16 13:20:26;;;;;;;10.80;10.23;;;;;;;24.13;100.00;102121.56;2007618;71;30918;-74
2022/06/16 13:26:23;;;;;;;11.05;10.55;;;;;;;24.01;100.00;102120.88;2009706;71;31389;-74
2022/06/16 13:32:36;;;;;;;12.37;11.38;;;;;;;24.30;100.00;102112.09;2007608;71;30841;-74
2022/06/16 13:38:48;;;;;;;11.40;10.80;;;;;;;24.99;100.00;102093.72;2009795;71;31360;-74
2022/06/16 13:45:23;;;;;;;11.48;10.93;;;;;;;25.63;100.00;102076.00;2016592;71;31013;-75
2022/06/16 13:51:41;;;;;;;12.50;11.80;;;;;;;25.16;100.00;102062.22;2013486;71;31036;-74
2022/06/16 13:57:32;;;;;;;11.28;10.78;;;;;;;25.31;100.00;102059.27;2014931;70;31859;-75
2022/06/16 14:03:25;;;;;;;11.55;10.95;;;;;;;25.84;100.00;102055.32;2015041;71;31057;-75
2022/06/16 14:09:14;;;;;;;11.48;10.88;;;;;;;25.93;100.00;102061.67;1977685;72;31035;-76
2022/06/16 14:15:07;;;;;;;12.07;11.40;;;;;;;26.29;100.00;102059.33;2013825;71;30928;-74
2022/06/16 14:20:57;;;;;;;20.72;14.23;;;;;;;25.91;100.00;102063.23;2005981;71;30904;-76
2022/06/16 14:26:45;;;;;;;12.60;11.70;;;;;;;25.19;100.00;102059.28;2012989;71;31006;-73
2022/06/16 14:32:35;;;;;;;12.05;11.45;;;;;;;25.43;100.00;102056.41;2004661;71;30886;-75
2022/06/16 14:38:25;;;;;;;12.85;11.85;;;;;;;25.34;100.00;102063.65;2010195;71;32337;-75
2022/06/16 14:44:10;;;;;;;12.03;11.43;;;;;;;24.59;100.00;102062.25;2088958;68;30676;-75
2022/06/16 14:50:02;;;;;;;11.97;11.48;;;;;;;25.84;100.00;102056.13;2013214;71;30981;-74
2022/06/16 14:55:55;;;;;;;12.03;11.43;;;;;;;25.64;100.00;102062.81;2002265;71;31033;-74
2022/06/16 15:01:41;;;;;;;11.60;11.00;;;;;;;25.01;100.00;102062.11;2009783;71;31476;-75
2022/06/16 15:07:28;;;;;;;11.60;10.95;;;;;;;25.36;100.00;102059.04;2002721;71;32283;-75
2022/06/16 15:13:13;;;;;;;11.70;11.10;;;;;;;25.24;100.00;102044.23;2014942;71;31461;-75
2022/06/16 15:18:58;;;;;;;12.37;11.53;;;;;;;25.02;100.00;102059.51;1995346;71;30869;-75
2022/06/16 15:24:46;;;;;;;11.53;11.03;;;;;;;24.85;100.00;102079.00;2008257;71;30834;-74
2022/06/16 15:30:33;;;;;;;12.03;11.30;;;;;;;25.26;100.00;102075.98;2013397;71;30885;-75
2022/06/16 15:36:22;;;;;;;11.43;10.70;;;;;;;24.89;100.00;102078.56;2015098;71;30940;-74
2022/06/16 15:42:09;;;;;;;11.68;11.08;;;;;;;25.42;100.00;102056.77;2016738;71;30880;-76
2022/06/16 15:47:55;;;;;;;11.55;10.95;;;;;;;25.54;100.00;102066.17;2015018;70;31048;-77
2022/06/16 15:53:46;;;;;;;11.53;10.68;;;;;;;25.48;100.00;102052.50;1998654;71;30908;-80
2022/06/16 15:59:53;;;;;;;11.30;10.60;;;;;;;25.16;100.00;102048.62;2009574;71;30886;-76
2022/06/16 16:05:43;;;;;;;11.33;10.78;;;;;;;25.04;100.00;102055.70;2019119;71;30879;-76
2022/06/16 16:11:31;;;;;;;11.53;11.03;;;;;;;24.81;100.00;102063.84;2000829;71;30965;-76
2022/06/16 16:17:17;;;;;;;12.63;11.60;;;;;;;25.02;100.00;102050.39;2015180;71;31003;-74
2022/06/16 16:23:19;;;;;;;11.68;10.88;;;;;;;25.32;100.00;102056.67;2004692;71;30881;-77
2022/06/16 16:29:10;;;;;;;11.38;10.88;;;;;;;26.00;100.00;102055.38;2011603;71;30940;-74
2022/06/16 16:34:59;;;;;;;12.10;11.50;;;;;;;26.27;100.00;102058.88;2006237;71;31807;-77
2022/06/16 16:47:07;;;;;;;11.10;10.40;;;;;;;25.78;100.00;102065.28;2011334;71;30925;-76
2022/06/16 16:53:10;;;;;;;10.98;10.25;;;;;;;25.91;100.00;102062.64;2000854;71;30623;-76
2022/06/16 16:59:00;;;;;;;12.68;11.68;;;;;;;25.64;100.00;102052.86;1998549;71;31916;-74
2022/06/16 17:04:48;;;;;;;13.20;12.30;;;;;;;25.97;100.00;102056.91;1921833;70;31321;-71
2022/06/16 17:10:32;;;;;;;11.95;11.30;;;;;;;26.14;100.00;102063.73;2006027;71;30918;-72
2022/06/16 17:16:18;;;;;;;12.00;11.40;;;;;;;25.96;100.00;102064.41;2003628;71;30927;-72
2022/06/16 17:22:04;;;;;;;12.23;11.43;;;;;;;26.01;100.00;102068.44;2003630;71;31856;-74
2022/06/16 17:27:48;;;;;;;11.73;11.08;;;;;;;25.86;100.00;102071.43;2016611;71;31400;-73
2022/06/16 17:33:38;;;;;;;12.00;11.30;;;;;;;25.81;100.00;102081.05;2014985;71;31846;-73
2022/06/16 17:39:27;;;;;;;12.05;11.45;;;;;;;26.01;100.00;102067.84;2009878;71;31792;-73
2022/06/16 17:45:13;;;;;;;12.60;11.90;;;;;;;26.08;100.00;102073.75;1995029;71;30925;-74
2022/06/16 17:50:58;;;;;;;12.30;11.57;;;;;;;25.74;100.00;102074.31;2011110;71;32963;-74
2022/06/16 18:02:47;;;;;;;13.45;12.65;;;;;;;25.80;100.00;102070.04;2014939;71;31860;-71
2022/06/16 18:08:35;;;;;;;13.30;12.45;;;;;;;25.69;100.00;102083.09;2000474;71;31855;-72
2022/06/16 18:14:20;;;;;;;14.20;13.10;;;;;;;25.70;100.00;102086.18;2004500;71;31506;-73
2022/06/16 18:20:07;;;;;;;16.55;15.25;;;;;;;25.60;100.00;102101.72;2009846;71;30854;-74
2022/06/16 18:25:54;;;;;;;14.75;13.68;;;;;;;25.61;100.00;102099.12;2006503;71;30977;-71
2022/06/16 18:31:42;;;;;;;11.97;11.35;;;;;;;25.46;100.00;102096.14;2007735;71;30834;-70
2022/06/16 18:37:28;;;;;;;14.53;13.53;;;;;;;25.55;100.00;102096.27;2016470;71;30970;-71
2022/06/16 18:43:19;;;;;;;15.53;14.53;;;;;;;25.43;100.00;102088.30;2007339;71;31003;-70
2022/06/16 18:49:06;;;;;;;16.23;15.13;;;;;;;25.44;100.00;102107.87;1991527;71;30901;-71
2022/06/16 18:54:55;;;;;;;14.35;13.35;;;;;;;25.21;100.00;102087.59;2009160;71;30952;-70
2022/06/16 19:00:44;;;;;;;15.23;14.23;;;;;;;25.30;100.00;102102.53;2016820;71;33428;-75
2022/06/16 19:06:35;;;;;;;14.35;13.45;;;;;;;25.20;100.00;102102.19;2014764;71;31409;-73
2022/06/16 19:12:21;;;;;;;13.83;12.98;;;;;;;25.21;100.00;102097.55;2003893;71;30954;-71
2022/06/16 19:18:10;;;;;;;15.05;13.95;;;;;;;25.14;100.00;102100.16;2014982;71;31060;-71
2022/06/16 19:23:58;;;;;;;14.73;13.72;;;;;;;24.99;100.00;102107.94;2009161;71;30948;-70
2022/06/16 19:29:44;;;;;;;11.70;11.10;;;;;;;24.92;100.00;102111.97;2016723;71;31474;-70
2022/06/16 19:35:28;;;;;;;12.13;11.33;;;;;;;24.75;100.00;102121.48;2012824;71;31366;-72
2022/06/16 19:41:15;;;;;;;11.83;11.05;;;;;;;24.52;100.00;102123.05;2002525;71;31339;-71
2022/06/16 19:53:03;;;;;;;15.25;14.07;;;;;;;24.34;100.00;102117.32;2014775;71;31490;-73
2022/06/16 19:58:49;;;;;;;15.45;14.23;;;;;;;24.18;100.00;102121.95;2014682;71;30993;-73
2022/06/16 20:04:34;;;;;;;12.90;11.83;;;;;;;24.08;100.00;102134.55;2016378;71;30920;-71
2022/06/16 20:10:21;;;;;;;13.53;12.13;;;;;;;23.88;100.00;102137.59;2016611;71;30952;-71
2022/06/16 20:16:07;;;;;;;15.43;14.20;;;;;;;23.89;100.00;102139.84;2014605;71;30956;-71
2022/06/16 20:21:52;;;;;;;19.77;18.07;;;;;;;23.75;100.00;102132.17;2011655;71;30844;-75
2022/06/16 20:27:36;;;;;;;22.42;20.43;;;;;;;23.54;100.00;102141.48;2000151;71;30905;-73
2022/06/16 20:33:26;;;;;;;14.85;13.65;;;;;;;23.48;100.00;102136.35;2011559;71;30884;-73
2022/06/16 20:39:10;;;;;;;13.15;12.25;;;;;;;23.50;100.00;102141.08;2000443;71;30835;-73
2022/06/16 20:44:57;;;;;;;12.50;11.63;;;;;;;23.51;100.00;102136.50;2016673;71;31008;-71
2022/06/16 20:50:42;;;;;;;12.70;11.80;;;;;;;23.28;100.00;102143.56;2018512;71;31438;-71
2022/06/16 20:56:28;;;;;;;11.53;10.90;;;;;;;23.33;100.00;102136.88;2016573;71;30890;-71
2022/06/16 21:02:12;;;;;;;12.50;11.80;;;;;;;23.34;100.00;102128.63;2000593;70;30888;-72
2022/06/16 21:08:00;;;;;;;13.83;12.93;;;;;;;23.28;100.00;102162.58;1990301;71;31294;-69
2022/06/16 21:13:45;;;;;;;13.18;12.25;;;;;;;23.01;100.00;102166.12;2011205;71;31502;-70
2022/06/16 21:19:34;;;;;;;13.95;13.03;;;;;;;22.86;100.00;102167.22;2011126;71;30984;-69
2022/06/16 21:25:23;;;;;;;14.05;13.00;;;;;;;22.72;100.00;102172.27;1994667;71;30985;-70
2022/06/16 21:31:11;;;;;;;14.05;13.15;;;;;;;22.49;100.00;102174.41;2018406;70;30957;-70
2022/06/16 21:36:57;;;;;;;12.90;12.07;;;;;;;22.32;100.00;102171.00;2000222;71;30987;-71
2022/06/16 21:42:42;;;;;;;13.40;12.50;;;;;;;22.38;100.00;102173.90;2013526;71;30840;-70
2022/06/16 21:48:29;;;;;;;12.80;11.88;;;;;;;22.40;100.00;102170.17;2013041;71;31068;-70
2022/06/16 21:54:18;;;;;;;14.35;13.45;;;;;;;22.25;100.00;102157.33;2016472;71;31004;-70
2022/06/16 22:00:03;;;;;;;14.70;13.68;;;;;;;22.20;100.00;102168.84;2016804;71;31442;-69
2022/06/16 22:05:49;;;;;;;13.40;12.45;;;;;;;22.01;100.00;102170.30;2016662;71;30957;-70
2022/06/16 22:17:37;;;;;;;12.25;11.57;;;;;;;21.98;100.00;102166.15;2008027;71;33435;-69
2022/06/16 22:23:49;;;;;;;12.25;11.55;;;;;;;21.76;100.00;102173.30;1998489;71;31414;-69
2022/06/16 22:29:37;;;;;;;12.17;11.40;;;;;;;21.65;100.00;102156.40;2013051;71;31481;-68
2022/06/16 22:35:28;;;;;;;12.70;12.00;;;;;;;21.64;100.00;102156.98;2009255;71;31386;-69
2022/06/16 22:41:17;;;;;;;12.03;11.30;;;;;;;21.71;100.00;102150.83;2000573;71;30853;-69
2022/06/16 22:47:03;;;;;;;11.65;11.05;;;;;;;21.58;100.00;102153.20;2008080;71;31352;-67
2022/06/16 22:52:51;;;;;;;12.50;11.70;;;;;;;21.38;100.00;102156.05;2005927;71;31455;-68
2022/06/16 22:58:39;;;;;;;12.85;12.00;;;;;;;21.30;100.00;102166.75;2000928;71;30968;-67
2022/06/16 23:04:26;;;;;;;11.87;11.17;;;;;;;21.26;100.00;102171.39;2018350;71;30967;-67
2022/06/16 23:10:16;;;;;;;12.90;12.10;;;;;;;21.18;100.00;102175.01;2005963;71;32596;-69
2022/06/16 23:16:05;;;;;;;12.67;11.97;;;;;;;21.34;100.00;102157.87;2009299;71;30885;-69
2022/06/16 23:21:51;;;;;;;12.10;11.20;;;;;;;21.34;100.00;102161.53;2014932;71;31030;-68
2022/06/16 23:24:23;;;;;;;11.87;11.33;;;;;;;21.30;100.00;102170.41;1962256;72;24241;-68
2022/06/16 23:30:10;;;;;;;11.93;11.33;;;;;;;21.20;100.00;102162.78;2011384;71;30929;-68
2022/06/16 23:35:56;;;;;;;12.40;11.70;;;;;;;21.36;100.00;102169.67;2000746;71;30884;-68
2022/06/16 23:41:43;;;;;;;11.87;11.07;;;;;;;21.29;100.00;102164.50;2000282;71;31448;-69
2022/06/16 23:48:19;;;;;;;13.78;12.95;;;;;;;21.24;100.00;102159.55;2011123;71;33327;-68
2022/06/16 23:53:18;;;;;;;12.53;11.63;;;;;;;20.50;100.00;102174.77;1991522;71;30997;-68
2022/06/16 23:59:07;;;;;;;14.80;13.47;;;;;;;20.18;100.00;102173.55;2016608;71;30897;-69
